Time;durP1;ratioP1;P1;durP2;ratioP2;P2;SDS_P1;SDS_P2;PMS_P1;PMS_P2;Temp;Humidity;BMP_temperature;BMP_pressure;BME280_temperature;BME280_humidity;BME280_pressure;Samples;Min_cycle;Max_cycle;Signal;HPM_P1;HPM_P2
2022/06/17 00:02:19;;;;;;;3.90;2.50;;;22.30;50.00;;;-142.21;58.23;112049.66;5036389;28;20293;-78
2022/06/17 00:04:47;;;;;;;2.53;2.07;;;22.20;50.10;;;-142.21;58.56;112049.66;5053832;28;20231;-76
2022/06/17 00:07:16;;;;;;;2.47;2.27;;;22.20;50.30;;;-142.21;58.86;112049.66;5055976;28;20213;-78
2022/06/17 00:09:43;;;;;;;2.70;2.30;;;22.20;50.50;;;-142.21;60.04;112049.66;5074196;28;20197;-77
2022/06/17 00:12:14;;;;;;;3.80;2.00;;;22.20;50.70;;;-142.21;59.90;112049.66;5057239;28;20206;-78
2022/06/17 00:17:25;;;;;;;3.40;1.90;;;22.10;50.40;;;-142.21;59.18;112049.66;5054893;28;20209;-79
2022/06/17 00:19:52;;;;;;;3.37;2.27;;;22.10;50.50;;;-142.21;59.04;112049.66;5060416;28;20210;-78
2022/06/17 00:22:20;;;;;;;2.43;2.17;;;22.00;50.40;;;-142.21;59.65;112049.66;5055152;28;20292;-79
2022/06/17 00:24:49;;;;;;;3.27;2.07;;;22.00;50.40;;;-142.21;59.63;112049.66;5054804;28;20335;-79
2022/06/17 00:27:17;;;;;;;3.53;2.23;;;22.00;50.50;;;-142.21;60.32;112049.66;5055286;28;20212;-79
2022/06/17 00:29:44;;;;;;;3.33;2.67;;;21.90;50.70;;;-142.21;60.76;112049.66;5054626;28;20229;-79
2022/06/17 00:32:11;;;;;;;2.50;2.30;;;21.90;50.70;;;-142.21;61.88;112049.66;5055171;28;20684;-77
2022/06/17 00:34:40;;;;;;;3.43;2.40;;;21.90;51.20;;;-142.21;61.64;112049.66;5059897;28;20197;-79
2022/06/17 00:37:13;;;;;;;2.37;2.10;;;21.80;51.10;;;-142.21;61.76;112049.66;5075671;28;20204;-79
2022/06/17 00:39:41;;;;;;;2.40;1.90;;;21.80;51.20;;;-142.21;62.26;112049.66;5074811;28;20185;-79
2022/06/17 00:42:14;;;;;;;2.50;2.30;;;21.80;51.40;;;-142.21;62.91;112049.66;5062542;28;20206;-78
2022/06/17 00:44:52;;;;;;;3.73;2.40;;;21.80;51.50;;;-142.21;62.65;112049.66;5035080;28;20301;-76
2022/06/17 00:47:31;;;;;;;2.77;2.17;;;21.70;51.50;;;-142.21;62.98;112049.66;5078358;28;20294;-78
2022/06/17 00:50:09;;;;;;;2.97;2.30;;;21.70;51.60;;;-142.21;62.90;112049.66;5038022;28;20224;-78
2022/06/17 00:52:44;;;;;;;4.10;2.00;;;21.70;51.60;;;-142.21;63.45;112049.66;5054561;28;20620;-80
2022/06/17 00:55:21;;;;;;;2.20;1.90;;;21.60;51.50;;;-142.21;64.30;112049.66;5053544;28;20198;-79
2022/06/17 00:57:49;;;;;;;2.70;2.50;;;21.50;51.80;;;-142.21;67.07;112049.66;5055717;28;20194;-79
2022/06/17 01:00:20;;;;;;;3.40;2.67;;;21.50;52.40;;;-142.21;70.04;112049.66;5053223;28;20309;-79
2022/06/17 01:02:52;;;;;;;2.67;2.47;;;21.40;53.20;;;-142.21;71.45;112049.66;5035076;28;20195;-79
2022/06/17 01:05:26;;;;;;;3.20;2.60;;;21.30;53.70;;;-142.21;72.42;112049.66;5053705;28;20228;-78
2022/06/17 01:08:00;;;;;;;3.53;2.43;;;21.20;53.70;;;-142.21;70.26;112049.66;5054606;28;20281;-80
2022/06/17 01:10:28;;;;;;;3.63;2.47;;;21.10;53.20;;;-142.21;70.41;112049.66;5053076;28;20200;-79
2022/06/17 01:13:02;;;;;;;2.73;2.53;;;21.10;53.30;;;-142.21;70.60;112049.66;5054772;28;20202;-79
2022/06/17 01:15:34;;;;;;;3.50;2.30;;;21.00;53.30;;;-142.21;71.60;112049.66;5054846;28;20228;-80
2022/06/17 01:18:02;;;;;;;3.60;2.63;;;21.00;53.70;;;-142.21;72.05;112049.66;5038092;28;20315;-79
2022/06/17 01:20:33;;;;;;;3.73;2.73;;;21.00;53.80;;;-142.21;72.19;112049.66;5054710;28;20213;-80
2022/06/17 01:23:09;;;;;;;2.87;2.53;;;20.90;54.00;;;-142.21;72.20;112049.66;5057284;28;20216;-79
2022/06/17 01:25:40;;;;;;;2.83;2.60;;;20.90;54.10;;;-142.21;73.15;112049.66;5054125;28;20645;-80
2022/06/17 01:28:11;;;;;;;2.90;2.40;;;20.80;54.00;;;-142.21;73.36;112049.66;5040061;28;20609;-79
2022/06/17 01:30:44;;;;;;;2.87;2.60;;;20.80;54.10;;;-142.21;74.02;112049.66;5035020;28;20199;-79
2022/06/17 01:33:18;;;;;;;2.60;2.40;;;20.80;54.20;;;-142.21;74.50;112049.66;5040158;28;20201;-79
2022/06/17 01:35:52;;;;;;;2.73;2.53;;;20.80;54.50;;;-142.21;75.24;112049.66;5054054;28;20230;-78
2022/06/17 01:38:23;;;;;;;4.33;2.63;;;20.80;54.60;;;-142.21;76.37;112049.66;5027022;28;20224;-79
2022/06/17 01:40:51;;;;;;;2.53;2.33;;;20.80;54.90;;;-142.21;77.27;112049.66;5049280;28;20228;-77
2022/06/17 01:43:22;;;;;;;2.70;2.40;;;20.80;55.00;;;-142.21;77.42;112049.66;5051856;28;20292;-79
2022/06/17 01:45:57;;;;;;;2.30;2.10;;;20.80;55.10;;;-142.21;77.22;112049.66;5034354;28;20191;-79
2022/06/17 01:48:32;;;;;;;3.97;2.80;;;20.70;55.20;;;-142.21;77.43;112049.66;5051816;28;20193;-79
2022/06/17 01:51:04;;;;;;;3.20;2.90;;;20.70;55.40;;;-142.21;77.65;112049.66;5049895;28;20647;-79
2022/06/17 01:53:38;;;;;;;2.90;2.60;;;20.70;55.40;;;-142.21;78.03;112049.66;5052402;28;20285;-79
2022/06/17 01:56:12;;;;;;;3.97;2.43;;;20.60;55.40;;;-142.21;77.86;112049.66;5054028;28;20185;-79
2022/06/17 01:58:46;;;;;;;2.50;2.30;;;20.60;55.40;;;-142.21;78.10;112049.66;5053452;28;20813;-79
2022/06/17 02:01:15;;;;;;;2.67;2.47;;;20.60;55.60;;;-142.21;77.81;112049.66;5053872;28;20640;-78
2022/06/17 02:03:50;;;;;;;4.30;2.53;;;20.50;55.20;;;-142.21;77.85;112049.66;5053287;28;20237;-77
2022/06/17 02:06:27;;;;;;;2.90;2.40;;;20.40;55.20;;;-142.21;78.46;112049.66;5070705;28;20283;-78
2022/06/17 02:08:56;;;;;;;3.07;2.47;;;20.40;55.50;;;-142.21;78.92;112049.66;5044237;28;20218;-77
2022/06/17 02:11:24;;;;;;;2.30;2.10;;;20.30;55.50;;;-142.21;78.64;112049.66;5034147;28;20216;-79
2022/06/17 02:13:52;;;;;;;4.33;2.30;;;20.30;55.50;;;-142.21;78.93;112049.66;5080521;28;20245;-79
2022/06/17 02:16:21;;;;;;;2.30;2.10;;;20.20;55.70;;;-142.21;79.85;112049.66;5031919;28;20202;-79
2022/06/17 02:18:49;;;;;;;2.30;2.10;;;20.10;56.20;;;-142.21;80.90;112049.66;5033334;28;20218;-78
2022/06/17 02:21:30;;;;;;;2.50;2.30;;;20.00;56.50;;;-142.21;81.99;112049.66;5051840;28;20212;-79
2022/06/17 02:24:01;;;;;;;2.70;2.50;;;20.00;57.10;;;-142.21;81.74;112049.66;5061183;28;20300;-78
2022/06/17 02:26:31;;;;;;;4.57;2.57;;;20.00;56.80;;;-142.21;81.91;112049.66;5065725;28;20193;-79
2022/06/17 02:28:58;;;;;;;3.60;2.63;;;19.90;56.80;;;-142.21;82.16;112049.66;5069387;28;20233;-78
2022/06/17 02:31:26;;;;;;;2.70;2.50;;;19.90;56.90;;;-142.21;82.54;112049.66;5033358;28;20202;-79
2022/06/17 02:33:53;;;;;;;2.70;2.20;;;19.90;57.00;;;-142.21;82.59;112049.66;5036386;28;20452;-78
2022/06/17 02:36:32;;;;;;;2.20;2.00;;;19.90;57.00;;;-142.21;82.52;112049.66;5053594;28;20216;-79
2022/06/17 02:39:19;;;;;;;3.50;2.50;;;19.90;57.10;;;-142.21;82.88;112049.66;5033633;28;20293;-79
2022/06/17 02:41:49;;;;;;;2.50;2.10;;;19.80;57.60;;;-142.21;83.04;112049.66;5050951;28;20205;-79
2022/06/17 02:44:22;;;;;;;2.90;2.53;;;19.80;57.30;;;-142.21;83.13;112049.66;5053674;28;20567;-79
2022/06/17 02:46:54;;;;;;;2.53;2.33;;;19.80;57.30;;;-142.21;83.09;112049.66;5034821;28;20458;-78
2022/06/17 02:49:25;;;;;;;2.43;2.23;;;19.80;57.30;;;-142.21;83.08;112049.66;5052866;28;20677;-79
2022/06/17 02:51:53;;;;;;;2.87;2.27;;;19.80;57.30;;;-142.21;82.58;112049.66;5058309;28;20532;-78
2022/06/17 02:54:32;;;;;;;3.50;2.30;;;19.70;57.10;;;-142.21;82.52;112049.66;5048185;28;20194;-79
2022/06/17 02:57:02;;;;;;;2.47;2.20;;;19.70;57.10;;;-142.21;82.66;112049.66;5052502;28;20471;-78
2022/06/17 02:59:36;;;;;;;2.67;2.47;;;19.70;56.80;;;-142.21;82.40;112049.66;5050519;28;20488;-79
2022/06/17 03:02:21;;;;;;;2.50;2.30;;;19.60;56.90;;;-142.21;82.97;112049.66;5052952;28;20190;-78
2022/06/17 03:04:49;;;;;;;3.10;2.73;;;19.60;56.90;;;-142.21;83.15;112049.66;5052231;28;20486;-79
2022/06/17 03:07:20;;;;;;;4.07;2.10;;;19.50;56.80;;;-142.21;83.15;112049.66;5052758;28;20229;-78
2022/06/17 03:09:50;;;;;;;2.30;2.10;;;19.50;56.90;;;-142.21;83.12;112049.66;5052366;28;20302;-79
2022/06/17 03:12:22;;;;;;;2.70;2.20;;;19.50;57.10;;;-142.21;83.63;112049.66;5039013;28;20456;-79
2022/06/17 03:15:05;;;;;;;5.00;2.70;;;19.50;57.10;;;-142.21;84.08;112049.66;5071019;28;20892;-79
2022/06/17 03:17:40;;;;;;;2.37;2.17;;;19.40;57.40;;;-142.21;84.58;112049.66;5043098;28;20207;-79
2022/06/17 03:20:15;;;;;;;2.60;2.37;;;19.30;57.60;;;-142.21;84.45;112049.66;5059909;28;20284;-79
2022/06/17 03:22:46;;;;;;;2.43;2.20;;;19.20;57.60;;;-142.21;84.61;112049.66;5032262;28;20521;-79
2022/06/17 03:25:26;;;;;;;2.17;1.97;;;19.20;57.60;;;-142.21;84.63;112049.66;5039717;28;20228;-77
2022/06/17 03:27:59;;;;;;;2.70;2.50;;;19.20;58.30;;;-142.21;84.72;112049.66;5063717;28;20494;-78
2022/06/17 03:30:34;;;;;;;2.13;1.93;;;19.20;57.80;;;-142.21;84.81;112049.66;5067711;28;20194;-79
2022/06/17 03:33:15;;;;;;;2.00;1.87;;;19.20;57.80;;;-142.21;85.11;112049.66;5053753;28;20197;-78
2022/06/17 03:35:45;;;;;;;4.47;2.30;;;19.20;57.80;;;-142.21;85.56;112049.66;5051881;28;20444;-78
2022/06/17 03:38:27;;;;;;;3.37;2.50;;;19.10;57.80;;;-142.21;85.54;112049.66;5039009;28;20210;-79
2022/06/17 03:41:04;;;;;;;3.80;2.37;;;19.10;58.10;;;-142.21;85.49;112049.66;5030648;28;20205;-77
2022/06/17 03:43:39;;;;;;;2.37;2.17;;;19.10;58.20;;;-142.21;85.89;112049.66;5036328;28;20206;-79
2022/06/17 03:46:08;;;;;;;4.90;2.40;;;19.00;58.10;;;-142.21;86.24;112049.66;5032267;28;20550;-79
2022/06/17 03:48:45;;;;;;;3.33;2.50;;;18.90;58.20;;;-142.21;86.37;112049.66;5047726;28;20209;-79
2022/06/17 03:51:19;;;;;;;2.70;2.50;;;18.90;58.40;;;-142.21;86.06;112049.66;5035545;28;20815;-79
2022/06/17 03:53:47;;;;;;;2.53;2.20;;;18.90;58.40;;;-142.21;85.95;112049.66;5042499;28;20297;-79
2022/06/17 03:56:22;;;;;;;4.23;2.33;;;18.80;58.20;;;-142.21;86.44;112049.66;5032231;28;20217;-79
2022/06/17 03:58:52;;;;;;;2.77;2.30;;;18.80;58.20;;;-142.21;86.79;112049.66;5049117;28;20448;-77
2022/06/17 04:01:26;;;;;;;2.40;2.20;;;18.80;58.30;;;-142.21;86.62;112049.66;5058340;28;20451;-79
2022/06/17 04:03:58;;;;;;;2.30;2.10;;;18.80;58.40;;;-142.21;86.49;112049.66;5035187;28;20555;-79
2022/06/17 04:06:32;;;;;;;3.90;2.43;;;18.80;58.30;;;-142.21;85.99;112049.66;5052001;28;20531;-79
2022/06/17 04:09:03;;;;;;;3.13;2.20;;;18.90;58.40;;;-142.21;85.45;112049.66;5032007;28;20433;-79
2022/06/17 04:11:41;;;;;;;2.70;2.50;;;19.00;58.40;;;-142.21;85.42;112049.66;5049029;28;20459;-78
2022/06/17 04:14:21;;;;;;;2.20;2.00;;;18.90;58.30;;;-142.21;84.96;112049.66;5017709;28;20815;-80
2022/06/17 04:16:58;;;;;;;9.07;2.43;;;19.00;58.40;;;-142.21;83.88;112049.66;5049450;28;20968;-80
2022/06/17 04:19:29;;;;;;;2.43;2.23;;;19.00;58.00;;;-142.21;84.38;112049.66;5069912;28;20455;-79
2022/06/17 04:22:03;;;;;;;2.83;2.50;;;19.00;58.10;;;-142.21;85.08;112049.66;5050862;28;20288;-79
2022/06/17 04:24:32;;;;;;;5.20;2.73;;;19.10;58.20;;;-142.21;84.55;112049.66;5051489;28;20567;-79
2022/06/17 04:27:06;;;;;;;2.97;2.33;;;19.10;58.10;;;-142.21;84.98;112049.66;5035403;28;20611;-79
2022/06/17 04:29:40;;;;;;;2.97;2.67;;;19.10;58.20;;;-142.21;86.43;112049.66;5055972;28;20228;-79
2022/06/17 04:32:17;;;;;;;5.33;2.33;;;19.10;58.80;;;-142.21;87.40;112049.66;5052234;28;20199;-79
2022/06/17 04:34:44;;;;;;;5.07;2.57;;;19.10;59.10;;;-142.21;88.17;112049.66;5027910;28;20217;-79
2022/06/17 04:37:20;;;;;;;3.83;2.67;;;19.00;59.10;;;-142.21;88.89;112049.66;5051503;28;20454;-79
2022/06/17 04:39:51;;;;;;;3.13;2.73;;;19.00;59.70;;;-142.21;89.47;112049.66;5050796;28;20456;-79
2022/06/17 04:42:28;;;;;;;6.27;2.83;;;19.00;59.70;;;-142.21;89.82;112049.66;5033056;28;20221;-79
2022/06/17 04:44:55;;;;;;;7.90;3.70;;;19.00;60.00;;;-142.21;90.34;112049.66;5054370;28;20225;-80
2022/06/17 04:47:23;;;;;;;4.47;2.57;;;19.10;60.30;;;-142.21;90.06;112049.66;5055022;28;20451;-79
2022/06/17 04:49:55;;;;;;;4.87;2.90;;;19.10;60.20;;;-142.21;90.08;112049.66;5047032;28;20297;-79
2022/06/17 04:52:32;;;;;;;4.53;2.90;;;19.10;60.00;;;-142.21;90.89;112049.66;5043144;28;20460;-77
2022/06/17 04:55:03;;;;;;;5.40;2.73;;;19.20;60.80;;;-142.21;91.09;112049.66;5040527;28;20663;-78
2022/06/17 04:57:32;;;;;;;6.27;2.67;;;19.20;60.40;;;-142.21;91.95;112049.66;5052786;28;20452;-78
2022/06/17 05:00:00;;;;;;;11.00;4.63;;;19.30;60.80;;;-142.21;92.84;112049.66;5034918;28;20222;-79
2022/06/17 05:02:31;;;;;;;3.73;2.63;;;19.40;61.40;;;-142.21;92.88;112049.66;5034682;28;20206;-79
2022/06/17 05:05:03;;;;;;;2.97;2.70;;;19.40;61.50;;;-142.21;92.49;112049.66;5044459;28;20488;-79
2022/06/17 05:07:40;;;;;;;3.10;2.70;;;19.50;61.20;;;-142.21;92.66;112049.66;5055297;28;20190;-78
2022/06/17 05:10:18;;;;;;;5.43;2.50;;;19.60;61.60;;;-142.21;92.95;112049.66;5052038;28;20296;-78
2022/06/17 05:12:56;;;;;;;2.40;2.20;;;19.60;61.60;;;-142.21;91.82;112049.66;5054213;28;20448;-76
2022/06/17 05:15:24;;;;;;;3.63;2.47;;;19.70;60.90;;;-142.21;91.55;112049.66;5054904;28;20523;-78
2022/06/17 05:17:52;;;;;;;2.53;2.33;;;19.70;60.70;;;-142.21;90.89;112049.66;5045607;28;20544;-77
2022/06/17 05:20:22;;;;;;;3.13;2.37;;;19.90;60.40;;;-142.21;90.45;112049.66;5040999;28;20647;-79
2022/06/17 05:22:55;;;;;;;4.03;2.40;;;19.90;60.10;;;-142.21;90.01;112049.66;5068973;28;20526;-77
2022/06/17 05:25:26;;;;;;;3.13;2.10;;;20.00;60.00;;;-142.21;88.83;112049.66;5068202;28;20206;-78
2022/06/17 05:27:55;;;;;;;3.53;2.47;;;20.10;59.50;;;-142.21;88.42;112049.66;5053643;28;20559;-78
2022/06/17 05:30:23;;;;;;;2.60;2.30;;;20.20;59.60;;;-142.21;87.78;112049.66;5050451;28;20280;-78
2022/06/17 05:32:55;;;;;;;2.20;2.00;;;20.30;59.10;;;-142.21;86.78;112049.66;5071677;28;20205;-79
2022/06/17 05:35:23;;;;;;;4.03;2.37;;;20.40;58.90;;;-142.21;86.20;112049.66;5054784;28;20194;-79
2022/06/17 05:37:51;;;;;;;2.57;2.30;;;20.50;58.60;;;-142.21;85.99;112049.66;5054014;28;20622;-79
2022/06/17 05:40:19;;;;;;;4.10;2.00;;;20.60;58.50;;;-142.21;85.44;112049.66;5054415;28;20210;-77
2022/06/17 05:42:49;;;;;;;2.60;2.40;;;20.70;58.20;;;-142.21;87.16;112049.66;5053460;28;20297;-78
2022/06/17 05:45:23;;;;;;;2.30;2.10;;;20.90;58.70;;;-142.21;85.16;112049.66;5052650;28;20700;-78
2022/06/17 05:47:50;;;;;;;2.60;2.37;;;21.00;58.30;;;-142.21;84.81;112049.66;5054109;28;20201;-78
2022/06/17 05:50:18;;;;;;;3.63;2.40;;;21.10;58.10;;;-142.21;84.98;112049.66;5054204;28;20297;-78
2022/06/17 05:52:51;;;;;;;3.53;2.20;;;21.20;58.20;;;-142.21;85.92;112049.66;5053154;28;20288;-79
2022/06/17 05:55:19;;;;;;;2.63;2.30;;;21.30;58.60;;;-142.21;84.61;112049.66;5053423;28;20232;-77
2022/06/17 05:57:47;;;;;;;2.77;2.27;;;21.40;58.00;;;-142.21;83.80;112049.66;5052920;28;20304;-78
2022/06/17 06:00:19;;;;;;;2.00;1.80;;;21.60;57.80;;;-142.21;82.01;112049.66;5053380;28;20221;-79
2022/06/17 06:02:47;;;;;;;2.83;2.50;;;21.70;57.40;;;-142.21;81.22;112049.66;5053209;28;20207;-78
2022/06/17 06:05:21;;;;;;;2.03;1.87;;;21.80;57.00;;;-142.21;81.45;112049.66;5053504;28;20232;-77
2022/06/17 06:07:50;;;;;;;3.90;2.33;;;21.90;56.90;;;-142.21;80.33;112049.66;5053463;28;20186;-80
2022/06/17 06:10:19;;;;;;;4.60;2.00;;;22.00;56.60;;;-142.21;80.84;112049.66;5053496;28;20217;-79
2022/06/17 06:12:57;;;;;;;2.43;2.23;;;22.00;56.70;;;-142.21;80.28;112049.66;5052686;28;20198;-79
2022/06/17 06:15:30;;;;;;;3.33;2.83;;;22.20;56.50;;;-142.21;78.71;112049.66;5053283;28;20201;-80
2022/06/17 06:18:00;;;;;;;2.67;1.73;;;22.20;56.10;;;-142.21;78.22;112049.66;5053280;28;20621;-80
2022/06/17 06:20:28;;;;;;;2.93;2.07;;;22.30;55.80;;;-142.21;74.84;112049.66;5053846;28;20606;-78
2022/06/17 06:22:55;;;;;;;1.90;1.70;;;22.50;54.90;;;-142.21;73.46;112049.66;5052858;28;20217;-81
2022/06/17 06:25:23;;;;;;;2.00;1.80;;;22.60;54.40;;;-142.21;71.67;112049.66;5053226;28;20226;-79
2022/06/17 06:27:50;;;;;;;2.07;1.90;;;22.70;54.00;;;-142.21;70.70;112049.66;5038367;28;20298;-81
2022/06/17 06:30:24;;;;;;;1.90;1.70;;;22.80;53.80;;;-142.21;69.60;112049.66;5050741;28;20289;-79
2022/06/17 06:32:56;;;;;;;2.27;1.80;;;23.00;53.40;;;-142.21;69.68;112049.66;5052613;28;20237;-79
2022/06/17 06:35:28;;;;;;;2.67;1.80;;;23.10;53.20;;;-142.21;69.62;112049.66;5033125;28;20579;-79
2022/06/17 06:37:55;;;;;;;1.70;1.60;;;23.20;53.30;;;-142.21;68.88;112049.66;5032907;28;20222;-79
2022/06/17 06:40:23;;;;;;;2.23;2.03;;;23.30;52.90;;;-142.21;67.33;112049.66;5041286;28;20605;-78
2022/06/17 06:42:52;;;;;;;2.13;1.73;;;23.40;52.70;;;-142.21;64.60;112049.66;5069014;28;20675;-78
2022/06/17 06:45:25;;;;;;;2.50;1.73;;;23.40;51.90;;;-142.21;64.76;112049.66;5073335;28;20242;-78
2022/06/17 06:47:57;;;;;;;2.27;1.70;;;23.50;52.00;;;-142.21;63.64;112049.66;5051777;28;20234;-78
2022/06/17 06:50:28;;;;;;;2.13;1.50;;;23.50;51.70;;;-142.21;65.89;112049.66;5052907;28;20213;-77
2022/06/17 06:52:56;;;;;;;6.43;2.00;;;23.70;52.10;;;-142.21;66.14;112049.66;5051959;28;20218;-77
2022/06/17 06:55:24;;;;;;;1.77;1.50;;;23.80;52.20;;;-142.21;60.64;112049.66;5036096;28;20241;-77
2022/06/17 06:57:54;;;;;;;2.17;1.40;;;23.80;50.90;;;-142.21;58.90;112049.66;5038776;28;20284;-78
2022/06/17 07:00:26;;;;;;;1.40;1.30;;;23.90;50.20;;;-142.21;56.50;112049.66;5042412;28;20226;-79
2022/06/17 07:02:55;;;;;;;3.13;1.80;;;24.00;49.70;;;-142.21;55.93;112049.66;5045859;28;20229;-77
2022/06/17 07:05:23;;;;;;;1.60;1.50;;;24.10;49.50;;;-142.21;56.11;112049.66;5052520;28;20720;-78
2022/06/17 07:07:50;;;;;;;3.87;1.60;;;24.20;49.40;;;-142.21;55.47;112049.66;5050970;28;20205;-78
2022/06/17 07:10:23;;;;;;;1.83;1.47;;;24.30;49.10;;;-142.21;56.73;112049.66;5052450;28;20216;-78
2022/06/17 07:12:51;;;;;;;1.60;1.47;;;24.40;49.50;;;-142.21;56.15;112049.66;5046667;28;20202;-77
2022/06/17 07:15:21;;;;;;;1.43;1.33;;;24.50;49.10;;;-142.21;56.04;112049.66;5053729;28;20201;-79
2022/06/17 07:17:59;;;;;;;1.63;1.37;;;24.60;49.20;;;-142.21;53.68;112049.66;5045151;28;20208;-78
2022/06/17 07:20:31;;;;;;;2.40;1.30;;;24.70;48.60;;;-142.21;53.97;112049.66;5052783;28;20237;-76
2022/06/17 07:22:59;;;;;;;1.70;1.47;;;24.80;48.70;;;-142.21;51.51;112049.66;5072137;28;20189;-79
2022/06/17 07:25:26;;;;;;;1.67;1.57;;;24.90;48.00;;;-142.21;52.26;112049.66;5064498;28;20310;-80
2022/06/17 07:27:53;;;;;;;2.20;1.83;;;24.90;48.60;;;-142.21;52.40;112049.66;5054121;28;20594;-81
2022/06/17 07:30:22;;;;;;;2.87;1.53;;;25.10;48.10;;;-142.21;50.28;112049.66;5052468;28;20292;-80
2022/06/17 07:32:50;;;;;;;2.00;1.63;;;25.10;47.40;;;-142.21;49.27;112049.66;5051055;28;20292;-78
2022/06/17 07:35:18;;;;;;;1.60;1.43;;;25.20;47.00;;;-142.21;50.84;112049.66;5051605;28;20201;-78
2022/06/17 07:40:32;;;;;;;1.60;1.50;;;25.40;47.50;;;-142.21;50.71;112049.66;5052402;28;20275;-79
2022/06/17 07:43:00;;;;;;;1.63;1.53;;;25.50;47.60;;;-142.21;50.26;112049.66;5071594;28;20565;-80
2022/06/17 07:45:31;;;;;;;1.83;1.67;;;25.60;47.10;;;-142.21;48.49;112049.66;5051515;28;20328;-76
2022/06/17 07:47:59;;;;;;;2.27;1.43;;;25.70;46.40;;;-142.21;48.67;112049.66;5050958;28;20205;-81
2022/06/17 07:50:32;;;;;;;2.97;1.87;;;25.70;46.40;;;-142.21;48.65;112049.66;5041196;28;20209;-81
2022/06/17 07:52:59;;;;;;;1.70;1.43;;;25.90;46.40;;;-142.21;48.77;112049.66;5036489;28;20224;-79
2022/06/17 07:55:27;;;;;;;1.67;1.57;;;25.90;46.40;;;-142.21;49.96;112049.66;5050583;28;20201;-79
2022/06/17 07:57:54;;;;;;;3.40;1.67;;;26.00;46.80;;;-142.21;46.59;112049.66;5050053;28;20237;-75
2022/06/17 08:00:28;;;;;;;1.80;1.43;;;26.10;45.40;;;-142.21;47.81;112049.66;5050852;28;20749;-76
2022/06/17 08:02:55;;;;;;;2.97;1.90;;;26.10;46.10;;;-142.21;48.10;112049.66;5050236;28;20224;-78
2022/06/17 08:05:22;;;;;;;1.60;1.50;;;26.20;46.20;;;-142.21;49.30;112049.66;5053458;28;20320;-76
2022/06/17 08:07:53;;;;;;;1.70;1.60;;;26.30;46.50;;;-142.21;48.85;112049.66;5058049;28;20216;-81
2022/06/17 08:10:26;;;;;;;5.40;2.00;;;26.40;46.40;;;-142.21;50.33;112049.66;5049477;28;20212;-78
2022/06/17 08:12:53;;;;;;;1.50;1.40;;;26.60;46.90;;;-142.21;50.87;112049.66;5050951;28;20213;-78
2022/06/17 08:15:21;;;;;;;1.70;1.60;;;26.70;47.00;;;-142.21;49.02;112049.66;5046232;28;20292;-77
2022/06/17 08:17:48;;;;;;;2.40;1.53;;;26.80;46.30;;;-142.21;49.03;112049.66;5051511;28;20206;-78
2022/06/17 08:20:21;;;;;;;2.13;1.70;;;26.90;46.50;;;-142.21;45.40;112049.66;5055631;28;20208;-78
2022/06/17 08:22:48;;;;;;;1.97;1.77;;;26.90;44.80;;;-142.21;46.05;112049.66;5055252;28;20278;-78
2022/06/17 08:25:17;;;;;;;2.67;1.83;;;26.90;44.90;;;-142.21;49.00;112049.66;5066618;28;20212;-79
2022/06/17 08:27:47;;;;;;;2.27;2.07;;;27.10;46.00;;;-142.21;45.72;112049.66;5057792;28;20205;-78
2022/06/17 08:30:18;;;;;;;2.50;1.80;;;27.20;45.00;;;-142.21;47.23;112049.66;5053000;28;20312;-75
2022/06/17 08:32:51;;;;;;;2.60;1.70;;;27.40;45.40;;;-142.21;47.12;112049.66;5059756;28;20289;-75
2022/06/17 08:35:23;;;;;;;2.13;1.50;;;27.50;45.30;;;-142.21;46.24;112049.66;5052201;28;20220;-76
2022/06/17 08:37:55;;;;;;;2.73;2.00;;;27.50;44.70;;;-142.21;45.21;112049.66;5053561;28;20206;-74
2022/06/17 08:40:53;;;;;;;1.73;1.63;;;27.50;44.40;;;-142.21;45.21;112049.66;5057089;28;20197;-75
2022/06/17 08:43:48;;;;;;;2.93;1.90;;;27.50;44.30;;;-142.21;47.04;112049.66;5051562;28;20289;-75
2022/06/17 08:46:37;;;;;;;2.10;1.80;;;27.60;45.10;;;-142.21;43.58;112049.66;5043800;28;20239;-75
2022/06/17 08:49:32;;;;;;;1.77;1.60;;;27.70;43.90;;;-142.21;44.92;112049.66;5044549;28;20265;-76
2022/06/17 08:52:31;;;;;;;1.70;1.60;;;27.70;44.10;;;-142.21;43.03;112049.66;5045719;28;20203;-76
2022/06/17 08:55:11;;;;;;;2.03;1.70;;;27.70;43.00;;;-142.21;44.97;112049.66;5045270;28;20214;-73
2022/06/17 08:57:53;;;;;;;3.83;2.00;;;27.70;44.30;;;-142.21;42.73;112049.66;5040107;28;20218;-77
2022/06/17 09:00:43;;;;;;;2.00;1.80;;;27.80;43.30;;;-142.21;43.61;112049.66;5050092;28;20287;-78
2022/06/17 09:03:49;;;;;;;1.80;1.70;;;27.90;43.60;;;-142.21;42.03;112049.66;5040113;28;20698;-78
2022/06/17 09:06:37;;;;;;;2.47;1.70;;;28.00;42.60;;;-142.21;44.77;112049.66;5048423;28;20325;-76
2022/06/17 09:09:45;;;;;;;1.73;1.33;;;28.10;44.20;;;-142.21;43.58;112049.66;5042746;28;20202;-75
2022/06/17 09:12:47;;;;;;;2.00;1.70;;;28.10;43.10;;;-142.21;43.60;112049.66;5043481;28;20208;-76
2022/06/17 09:15:32;;;;;;;1.87;1.77;;;28.20;43.70;;;-142.21;44.19;112049.66;5041397;28;20539;-76
2022/06/17 09:18:09;;;;;;;2.07;1.87;;;28.30;44.00;;;-142.21;43.02;112049.66;5049722;28;20249;-75
2022/06/17 09:20:40;;;;;;;2.27;1.60;;;28.40;43.50;;;-142.21;42.62;112049.66;5045871;28;20215;-75
2022/06/17 09:23:12;;;;;;;3.53;2.03;;;28.50;43.00;;;-142.21;42.30;112049.66;5015244;28;20303;-77
2022/06/17 09:25:45;;;;;;;2.13;1.70;;;28.70;42.80;;;-142.21;41.69;112049.66;5044623;28;20288;-75
2022/06/17 09:28:20;;;;;;;2.23;1.70;;;28.80;42.70;;;-142.21;39.64;112049.66;5061864;28;20327;-75
2022/06/17 09:30:58;;;;;;;2.77;1.63;;;28.70;41.10;;;-142.21;39.98;112049.66;5059542;28;20525;-75
2022/06/17 09:33:34;;;;;;;2.53;1.50;;;28.80;41.40;;;-142.21;38.73;112049.66;5066690;28;20199;-74
2022/06/17 09:36:13;;;;;;;1.70;1.60;;;28.80;41.00;;;-142.21;39.87;112049.66;5052457;28;20196;-75
2022/06/17 09:38:49;;;;;;;2.17;1.70;;;28.90;41.40;;;-142.21;40.95;112049.66;5055779;28;20280;-75
2022/06/17 09:41:26;;;;;;;1.97;1.80;;;29.10;41.90;;;-142.21;40.69;112049.66;5064311;28;20200;-75
2022/06/17 09:44:01;;;;;;;1.60;1.50;;;29.20;41.70;;;-142.21;38.70;112049.66;5047243;28;20295;-75
2022/06/17 09:46:37;;;;;;;5.90;1.73;;;29.40;40.70;;;-142.21;37.24;112049.66;5033613;28;20232;-76
2022/06/17 09:49:16;;;;;;;2.00;1.80;;;29.50;39.60;;;-142.21;36.78;112049.66;5048878;28;20286;-75
2022/06/17 09:51:48;;;;;;;2.17;1.77;;;29.50;39.10;;;-142.21;36.42;112049.66;5030708;28;20203;-74
2022/06/17 09:54:26;;;;;;;2.43;1.60;;;29.50;39.00;;;-142.21;38.22;112049.66;5054175;28;20648;-75
2022/06/17 09:57:01;;;;;;;2.40;1.80;;;29.60;40.20;;;-142.21;38.96;112049.66;5057662;28;20204;-75
2022/06/17 09:59:37;;;;;;;1.77;1.67;;;29.70;40.30;;;-142.21;38.40;112049.66;5052106;28;20204;-75
2022/06/17 10:02:22;;;;;;;1.97;1.80;;;29.80;40.00;;;-142.21;38.64;112049.66;5052766;28;20204;-75
2022/06/17 10:04:52;;;;;;;1.60;1.50;;;29.90;40.10;;;-142.21;38.51;112049.66;5054089;28;20197;-75
2022/06/17 10:07:32;;;;;;;1.50;1.40;;;30.00;40.10;;;-142.21;37.75;112049.66;5053980;28;20237;-74
2022/06/17 10:10:20;;;;;;;2.10;1.50;;;30.10;39.70;;;-142.21;34.16;112049.66;5052910;28;20205;-76
2022/06/17 10:13:07;;;;;;;2.07;1.53;;;30.10;36.70;;;-142.21;36.38;112049.66;5047743;28;20560;-78
2022/06/17 10:18:31;;;;;;;2.13;1.60;;;30.10;37.90;;;-142.21;37.53;112049.66;5047484;28;20208;-75
2022/06/17 10:18:48;;;;;;;1.70;1.60;;;30.20;39.10;;;-142.21;37.10;112049.66;5048605;28;20217;-75
2022/06/17 10:21:53;;;;;;;1.60;1.33;;;30.30;38.60;;;-142.21;37.09;112049.66;5019168;28;20213;-75
2022/06/17 10:24:38;;;;;;;3.67;1.60;;;30.40;38.70;;;-142.21;35.47;112049.66;5059736;28;20649;-75
2022/06/17 10:27:25;;;;;;;1.60;1.50;;;30.50;38.00;;;-142.21;36.31;112049.66;5049165;28;20255;-75
2022/06/17 10:30:04;;;;;;;1.50;1.33;;;30.60;38.20;;;-142.21;34.71;112049.66;5053186;28;20233;-74
2022/06/17 10:32:36;;;;;;;1.33;1.27;;;30.70;37.00;;;-142.21;33.15;112049.66;5050485;28;20190;-75